TOURFACTS.DK  
Stats and Facts from Tour de France.

Tour de France 2018 starts in 169 days
  Riders   Stages   Teams   Summits   Yearly  


 
Search by year

 2017 - St.21:
 14824 starters.
  5132 different riders.
  635 teams.
  2232 stages.
  454 restdays.
  439589.60 km.
  5653 abandonnees.


Top 3
GC
Christopher Froome86:20:55
Rigoberto Uran86:21:49
Romain Bardet86:23:15
Climb
Warren Barguil169 pt.
Primoz Roglic80 pt.
Thomas De Gendt64 pt.
Sprint
Michael Matthews359 pt.
André Greipel234 pt.
Edvald Boasson Hagen220 pt.
Youth
Simon Yates86:27:09
Louis Meintjes86:29:15
Emanuel Buchmann86:54:16
Facts from Tour de France 2010
  |   Stages.  |   Stage winners.  |   Days in yellow  |   Average speed.  |   Route.  |   Teams.  |   All riders.  |   Rookies.  |   Withdrawls.  |  

  |   GC.  |   Polka  |   Green  |   White  |   Summits. (In tour)  |   Summits. (Points)  |   Miscellaneous.  |  

Stage 17 on 22 - 07 - 2010
         Owning:    Andy Schleck    
Pick a stage:  Pro 1 2 3 4 5 6 7 8 9 10 11 12 13 14 15 16 17 18 19 20
  PauCol du Tourmalet | Dist: 174.00 km.
Cat: 4RenoirRUSAlexandr Kolobnev
3 points
 
Cat: 1Col de Marie-BlanqueARGJuan Antonio Flecha
15 points
 
Cat: 1Col du SoulorGERMarcus Burghardt
15 points
 
Cat: HCol du TourmaletLUXAndy Schleck
40 points
 

Average speed for all riders in stage:  32,332 km./hr.
    Place:Name:Team:Time:Km/h:
LUXAndy SchleckDNKTeam Saxo Bank05:03:29  +  00:00:00=34,401 
ESPAlberto ContadorKAZAstana Pro Team05:03:29  +  00:00:00=34,401 
ESPJoaquim RodriguezRUSTeam Katusha05:04:47  +  00:01:18=34,254 
4 CANRyder HesjedalUSAGarmin-Transitions05:04:56  +  00:01:27=34,237 
5 ESPSamuel SanchezESPEuskaltel - Euskadi05:05:01  +  00:01:32=34,228 
6 RUSDenis MenchovNLDRabobank05:05:09  +  00:01:40=34,213 
7 NEDRobert GesinkNLDRabobank05:05:09  +  00:01:40=34,213 
8 JPNChristopher HornerUSATeam Radio Shack05:05:14  +  00:01:45=34,203 
9 BELJurgen Van Den BroeckBELOmega Pharma - Lotto05:05:17  +  00:01:48=34,198 
10 CZERoman KreuzigerITALiquigas-Doimo05:05:43  +  00:02:14=34,149 
11 ITADamiano CunegoITALampre-Farnese Vini05:06:29  +  00:03:00=34,064 
12 FRANicolas RocheFRAAg2r La Mondiale05:06:55  +  00:03:26=34,016 
13 GERAndréas KlödenUSATeam Radio Shack05:06:59  +  00:03:30=34,008 
14 FRAJohn GadretFRAAg2r La Mondiale05:07:04  +  00:03:35=33,999 
15 BLRKanstantin SivtsovUSATeam Columbia-HTC05:07:13  +  00:03:44=33,983 
16 SUISteve MorabitoUSABMC Racing Team05:07:27  +  00:03:58=33,957 
17 USALance ArmstrongUSATeam Radio Shack05:07:41  +  00:04:12=33,931 
18 ESPCarlos BarredoBELQuick Step05:07:45  +  00:04:16=33,924 
19 BLRVasil KiryienkaESPCaisse d´Epargne05:07:54  +  00:04:25=33,907 
20 ESPLuis León SánchezESPCaisse d´Epargne05:07:54  +  00:04:25=33,907 
21 FRAPierre RollandFRABbox Bouygues Telecom05:07:59  +  00:04:30=33,898 
22 FRAChristophe MoreauESPCaisse d´Epargne05:08:05  +  00:04:36=33,887 
23 ESPRubén PlazaESPCaisse d´Epargne05:08:28  +  00:04:59=33,845 
24 ESPGorka VerdugoESPEuskaltel - Euskadi05:08:44  +  00:05:15=33,816 
25 ESPDaniel MorenoBELOmega Pharma - Lotto05:08:52  +  00:05:23=33,801 
26 FRAAmaël MoinardFRACofidis Le Credit En Ligne05:08:59  +  00:05:30=33,788 
27 FRAAnthony CharteauFRABbox Bouygues Telecom05:09:06  +  00:05:37=33,775 
28 POLSylvester SzmydITALiquigas-Doimo05:09:11  +  00:05:42=33,766 
29 FRACyril GautierFRABbox Bouygues Telecom05:09:13  +  00:05:44=33,763 
30 RUSAlexandr KolobnevRUSTeam Katusha05:09:21  +  00:05:52=33,748 
31 BELKevin De WeertBELQuick Step05:09:25  +  00:05:56=33,741 
32 FRAChristophe RiblonFRAAg2r La Mondiale05:09:27  +  00:05:58=33,737 
33 SWEThomas LövkvistGBRSky Procycling05:09:50  +  00:06:21=33,696 
34 SUIMartin ElmigerFRAAg2r La Mondiale05:10:04  +  00:06:35=33,670 
35 ESPRuben PerezESPEuskaltel - Euskadi05:10:21  +  00:06:52=33,639 
36 SLOKristjan KorenITALiquigas-Doimo05:10:31  +  00:07:02=33,621 
37 FRASandy CasarFRAFrancaise Des Jeux05:11:05  +  00:07:36=33,560 
38 BELMario AertsBELOmega Pharma - Lotto05:11:18  +  00:07:49=33,537 
39 FRAJulien El FarčsFRACofidis Le Credit En Ligne05:11:24  +  00:07:55=33,526 
40 FRARémy Di GrégorioFRAFrancaise Des Jeux05:11:56  +  00:08:27=33,469 
41 ESPJuan Manuel GarateNLDRabobank05:12:22  +  00:08:53=33,422 
42 PORSergio PaulinhoUSATeam Radio Shack05:12:28  +  00:08:59=33,412 
43 USALevi LeipheimerUSATeam Radio Shack05:12:28  +  00:08:59=33,412 
44 BELFrancis De GreefBELOmega Pharma - Lotto05:12:28  +  00:08:59=33,412 
45 UKRVolodymir GustovCHECervelo Test Team05:12:31  +  00:09:02=33,406 
46 BELJohan VansummerenUSAGarmin-Transitions05:12:43  +  00:09:14=33,385 
47 ESPJosé Ivan GutierrezESPCaisse d´Epargne05:13:41  +  00:10:12=33,282 
48 FRASébastien MinardFRACofidis Le Credit En Ligne05:13:55  +  00:10:26=33,257 
49 KAZAlexandre VinokourovKAZAstana Pro Team05:14:14  +  00:10:45=33,224 
50 AUTThomas RohreggerDEUTeam Milram05:14:14  +  00:10:45=33,224 
51 AUSMatthew LloydBELOmega Pharma - Lotto05:14:14  +  00:10:45=33,224 
52 ESPDaniel NavarroKAZAstana Pro Team05:14:14  +  00:10:45=33,224 
53 ESPIvan VelascoESPEuskaltel - Euskadi05:14:20  +  00:10:51=33,213 
54 FRASylvain ChavanelBELQuick Step05:14:45  +  00:11:16=33,169 
55 FRAPierrick FédrigoFRABbox Bouygues Telecom05:14:45  +  00:11:16=33,169 
56 SUIJakob FuglsangDNKTeam Saxo Bank05:15:04  +  00:11:35=33,136 
57 DENChris Anker SřrensenDNKTeam Saxo Bank05:15:04  +  00:11:35=33,136 
58 ESPEgoi MartínezESPEuskaltel - Euskadi05:15:04  +  00:11:35=33,136 
59 AUSCadel EvansUSABMC Racing Team05:15:29  +  00:12:00=33,092 
60 GERMarcus BurghardtUSABMC Racing Team05:15:29  +  00:12:00=33,092 
61 PORRui CostaESPCaisse d´Epargne05:15:34  +  00:12:05=33,083 
62 USADavid ZabriskieUSAGarmin-Transitions05:18:10  +  00:14:41=32,813 
63 FRARémi PauriolFRACofidis Le Credit En Ligne05:18:29  +  00:15:00=32,780 
64 ESPAitor PerezESPFooton-Servetto05:19:04  +  00:15:35=32,720 
65 FRAMathieu PergetESPCaisse d´Epargne05:19:04  +  00:15:35=32,720 
66 RUSEduard VorganovRUSTeam Katusha05:19:04  +  00:15:35=32,720 
67 USAGeorge HincapieUSABMC Racing Team05:19:04  +  00:15:35=32,720 
68 NEDKoos MoerenhoutNLDRabobank05:19:04  +  00:15:35=32,720 
69 ITAIvan BassoITALiquigas-Doimo05:19:57  +  00:16:28=32,630 
70 BLRAliaksandr KuchynskiITALiquigas-Doimo05:19:57  +  00:16:28=32,630 
71 ESPJesus  HernandezKAZAstana Pro Team05:19:57  +  00:16:28=32,630 
72 ESPCarlos SastreCHECervelo Test Team05:20:17  +  00:16:48=32,596 
73 ITAPaolo TiralongoKAZAstana Pro Team05:20:21  +  00:16:52=32,589 
74 RUSSerguei IvanovRUSTeam Katusha05:20:21  +  00:16:52=32,589 
75 SUIFabian CancellaraDNKTeam Saxo Bank05:20:47  +  00:17:18=32,545 
76 ESPDavid De La FuenteKAZAstana Pro Team05:21:18  +  00:17:49=32,493 
77 SLOGrega BoleITALampre-Farnese Vini05:21:18  +  00:17:49=32,493 
78 ARGJuan Antonio FlechaGBRSky Procycling05:23:02  +  00:19:33=32,319 
79 FRAMatthieu LadagnousFRAFrancaise Des Jeux05:23:14  +  00:19:45=32,299 
80 BELMaarten WynantsBELQuick Step05:23:37  +  00:20:08=32,260 
81 NOREdvald Boasson HagenGBRSky Procycling05:24:07  +  00:20:38=32,211 
82 ESPAlan PerezESPEuskaltel - Euskadi05:24:43  +  00:21:14=32,151 
83 GERLinus GerdemannDEUTeam Milram05:26:03  +  00:22:34=32,020 
84 AUSMichael RogersUSATeam Columbia-HTC05:26:48  +  00:23:19=31,946 
85 BELMaxime MonfortUSATeam Columbia-HTC05:26:48  +  00:23:19=31,946 
86 GERSebastian LangBELOmega Pharma - Lotto05:26:48  +  00:23:19=31,946 
87 ITAFrancesco BellottiITALiquigas-Doimo05:26:48  +  00:23:19=31,946 
88 BELBradley WigginsGBRSky Procycling05:26:48  +  00:23:19=31,946 
89 GERGrischa NiermannNLDRabobank05:26:48  +  00:23:19=31,946 
90 KAZDmitriy MuravyevUSATeam Radio Shack05:26:48  +  00:23:19=31,946 
91 SUIGregory RastUSATeam Radio Shack05:26:48  +  00:23:19=31,946 
92 UKRYaroslav PopovychUSATeam Radio Shack05:26:48  +  00:23:19=31,946 
93 NEDLars BoomNLDRabobank05:26:48  +  00:23:19=31,946 
94 BELJurgen Van De WalleBELQuick Step05:26:48  +  00:23:19=31,946 
95 FRAJérôme PineauBELQuick Step05:26:58  +  00:23:29=31,930 
96 BELDries DevenynsBELQuick Step05:31:39  +  00:28:10=31,479 
97 BELKevin SeeldraeyersBELQuick Step05:31:39  +  00:28:10=31,479 
98 FRAThomas VoecklerFRABbox Bouygues Telecom05:31:46  +  00:28:17=31,468 
99 FRAChristophe KernFRACofidis Le Credit En Ligne05:31:46  +  00:28:17=31,468 
100 JPNYukiya ArashiroFRABbox Bouygues Telecom05:31:46  +  00:28:17=31,468 
101 GERFabian WegmannDEUTeam Milram05:32:16  +  00:28:47=31,421 
102 GERChristian KneesDEUTeam Milram05:32:16  +  00:28:47=31,421 
103 ITARinaldo NocentiniFRAAg2r La Mondiale05:32:16  +  00:28:47=31,421 
104 CANMichael BarryGBRSky Procycling05:32:16  +  00:28:47=31,421 
105 ESPBenjamin NovalKAZAstana Pro Team05:32:27  +  00:28:58=31,403 
106 AUSStuart O'GradyDNKTeam Saxo Bank05:32:27  +  00:28:58=31,403 
107 DENMatti BreschelDNKTeam Saxo Bank05:32:27  +  00:28:58=31,403 
108 GERJens VoigtDNKTeam Saxo Bank05:32:27  +  00:28:58=31,403 
109 ITAEros CapecchiESPFooton-Servetto05:32:27  +  00:28:58=31,403 
110 ESPJosé Joaquin RojasESPCaisse d´Epargne05:32:27  +  00:28:58=31,403 
111 DENNicki SřrensenDNKTeam Saxo Bank05:32:27  +  00:28:58=31,403 
112 ITADaniel OssITALiquigas-Doimo05:32:27  +  00:28:58=31,403 
113 BELJürgen RoelandtsBELOmega Pharma - Lotto05:32:27  +  00:28:58=31,403 
114 WALGeraint ThomasGBRSky Procycling05:32:27  +  00:28:58=31,403 
115 ITAFrancesco GavazziITALampre-Farnese Vini05:32:27  +  00:28:58=31,403 
116 ESPImanol ErvitiESPCaisse d´Epargne05:32:27  +  00:28:58=31,403 
117 SLOJanez BrajkovicUSATeam Radio Shack05:32:27  +  00:28:58=31,403 
118 ESPJosé BenitezESPFooton-Servetto05:32:27  +  00:28:58=31,403 
119 USABrent BookwalterUSABMC Racing Team05:32:27  +  00:28:58=31,403 
120 FRAMatthieu SprickFRABbox Bouygues Telecom05:32:27  +  00:28:58=31,403 
121 ITAMauro Da DaltoITALampre-Farnese Vini05:32:27  +  00:28:58=31,403 
122 ENGStephen CummingsGBRSky Procycling05:32:27  +  00:28:58=31,403 
123 FRANicolas VogondyFRABbox Bouygues Telecom05:32:27  +  00:28:58=31,403 
124 FRAChristophe Le MevelFRAFrancaise Des Jeux05:32:27  +  00:28:58=31,403 
125 ESPRafael Valls FerriESPFooton-Servetto05:32:27  +  00:28:58=31,403 
126 ESPArkaitz DuranESPFooton-Servetto05:32:27  +  00:28:58=31,403 
127 NZLJulian DeanUSAGarmin-Transitions05:32:27  +  00:28:58=31,403 
128 KAZMaxim IglinskiyKAZAstana Pro Team05:32:27  +  00:28:58=31,403 
129 ITAManuel QuinziatoITALiquigas-Doimo05:32:27  +  00:28:58=31,403 
130 ITAAlessandro BallanUSABMC Racing Team05:32:27  +  00:28:58=31,403 
131 FRABenoit VaugrenardFRAFrancaise Des Jeux05:32:27  +  00:28:58=31,403 
132 NEDKarsten KroonUSABMC Racing Team05:32:27  +  00:28:58=31,403 
133 FRASébastien TurgotFRABbox Bouygues Telecom05:32:27  +  00:28:58=31,403 
134 AUSBrett LancasterCHECervelo Test Team05:32:27  +  00:28:58=31,403 
135 GERGerald CiolekDEUTeam Milram05:32:27  +  00:28:58=31,403 
136 NEDMartijn MaaskantUSAGarmin-Transitions05:33:34  +  00:30:05=31,298 
137 ESPOscar FreireNLDRabobank05:33:34  +  00:30:05=31,298 
138 NORThor HushovdCHECervelo Test Team05:33:34  +  00:30:05=31,298 
139 NEDMaarten TjallingiiNLDRabobank05:33:34  +  00:30:05=31,298 
140 RUSPavel BruttRUSTeam Katusha05:33:34  +  00:30:05=31,298 
141 GERJohannes FröhlingerDEUTeam Milram05:33:34  +  00:30:05=31,298 
142 ITAAdriano MaloriITALampre-Farnese Vini05:33:34  +  00:30:05=31,298 
143 BELSerge PauwelsGBRSky Procycling05:33:34  +  00:30:05=31,298 
144 FRAJérémy RoyFRAFrancaise Des Jeux05:33:39  +  00:30:10=31,290 
145 AUSWesley SulzbergerFRAFrancaise Des Jeux05:33:39  +  00:30:10=31,290 
146 AUSLuke RobertsDEUTeam Milram05:33:39  +  00:30:10=31,290 
147 FRAAnthony GeslinFRAFrancaise Des Jeux05:33:39  +  00:30:10=31,290 
148 CANJeremy HuntCHECervelo Test Team05:33:46  +  00:30:17=31,279 
149 DENBrian VandborgITALiquigas-Doimo05:33:46  +  00:30:17=31,279 
150 UKRAndriy GrivkoKAZAstana Pro Team05:33:52  +  00:30:23=31,270 
151 URSIgnatas KonovalovasCHECervelo Test Team05:33:55  +  00:30:26=31,265 
152 ENGDaniel LloydCHECervelo Test Team05:34:04  +  00:30:35=31,251 
153 FRAMaxime BouetFRAAg2r La Mondiale05:34:19  +  00:30:50=31,228 
154 FRADimitri ChampionFRAAg2r La Mondiale05:34:19  +  00:30:50=31,228 
155 FRALloyd MondoryFRAAg2r La Mondiale05:34:19  +  00:30:50=31,228 
156 ITAMirco LorenzettoITALampre-Farnese Vini05:34:22  +  00:30:53=31,223 
157 FRADamien MonierFRACofidis Le Credit En Ligne05:34:29  +  00:31:00=31,212 
158 FRAStéphane AugeFRACofidis Le Credit En Ligne05:34:30  +  00:31:01=31,211 
159 FRAAnthony RouxFRAFrancaise Des Jeux05:34:38  +  00:31:09=31,198 
160 ESPIńaki Isasi FloresESPEuskaltel - Euskadi05:34:46  +  00:31:17=31,186 
161 AUSRobbie McEwenRUSTeam Katusha05:35:08  +  00:31:39=31,152 
162 AUTBernhard EiselUSATeam Columbia-HTC05:35:15  +  00:31:46=31,141 
163 GERTony MartinUSATeam Columbia-HTC05:35:15  +  00:31:46=31,141 
164 GERBert GrabschUSATeam Columbia-HTC05:35:15  +  00:31:46=31,141 
165 IOMMark CavendishUSATeam Columbia-HTC05:35:15  +  00:31:46=31,141 
166 MDAAlexandr PliuschinRUSTeam Katusha05:35:15  +  00:31:46=31,141 
167 ITAFrancesco RedaBELQuick Step05:35:15  +  00:31:46=31,141 
168 GERDanilo HondoITALampre-Farnese Vini05:35:58  +  00:32:29=31,075 
169 ITAAlessandro PetacchiITALampre-Farnese Vini05:36:01  +  00:32:32=31,070 
170 MLTDavid MillarUSAGarmin-Transitions05:36:16  +  00:32:47=31,047 
171 GERAndreas KlierCHECervelo Test Team05:36:43  +  00:33:14=31,005 

Withdrawls: 1
 
Rider
Team
Reason
209  SLOSimon SpilakITALampre-Farnese ViniDid not start

Todays birthdays.

1887  Marcel Godivier
1895  Louis Thuayre
1896  Léon Devos
1932  Aniceto Utset
1935  Willy Altig
1939  Sebastián Elorza
1941  René Binggeli
1948  Gerard Moneyron
1953  Patrocinio Jiménez
1954  Pierre Bazzo
1955  Serge Beucherie
1967  Antonio Politano
1969  Sergio Barbero
1977  Luca Paolini
1980  Gregory Rast
1981  Christophe Riblon
1985  Sebastian Langeveld
1990  Johan Esteban Chaves




Visits: